Time;durP1;ratioP1;P1;durP2;ratioP2;P2;SDS_P1;SDS_P2;PMS_P1;PMS_P2;Temp;Humidity;BMP_temperature;BMP_pressure;BME280_temperature;BME280_humidity;BME280_pressure;Samples;Min_cycle;Max_cycle;Signal;HPM_P1;HPM_P2
2023/07/11 00:01:50;;;;;;;22.98;5.65;;;;;;;-142.57;58.68;115900.28;6278114;22;20057;-85
2023/07/11 00:04:16;;;;;;;17.80;5.88;;;;;;;-142.57;58.16;115900.28;6277360;22;20009;-87
2023/07/11 00:06:41;;;;;;;16.38;5.32;;;;;;;-142.57;57.61;115900.28;6276936;22;20008;-86
2023/07/11 00:09:07;;;;;;;17.75;5.75;;;;;;;-142.57;57.88;115900.28;6277586;22;20113;-86
2023/07/11 00:11:32;;;;;;;8.80;4.90;;;;;;;-142.57;57.17;115900.28;6276571;22;20153;-85
2023/07/11 00:13:59;;;;;;;21.02;5.45;;;;;;;-142.57;57.63;115900.28;6277243;22;20035;-84
2023/07/11 00:16:25;;;;;;;13.77;5.30;;;;;;;-142.57;58.21;115900.28;6276308;22;20012;-87
2023/07/11 00:18:51;;;;;;;14.57;5.00;;;;;;;-142.57;57.68;115900.28;6276312;22;20030;-87
2023/07/11 00:21:16;;;;;;;14.20;5.50;;;;;;;-142.57;57.01;115900.28;6276276;22;20012;-88
2023/07/11 00:23:42;;;;;;;15.13;5.05;;;;;;;-142.57;56.68;115900.28;6249403;22;20019;-87
2023/07/11 00:26:07;;;;;;;20.30;6.03;;;;;;;-142.57;55.87;115900.28;6276058;22;20003;-85
2023/07/11 00:28:33;;;;;;;15.20;5.22;;;;;;;-142.57;55.31;115900.28;6274266;22;20439;-86
2023/07/11 00:30:59;;;;;;;14.52;5.05;;;;;;;-142.57;54.87;115900.28;6276521;22;20039;-87
2023/07/11 00:33:24;;;;;;;10.15;5.20;;;;;;;-142.57;55.35;115900.28;6277218;22;20012;-86
2023/07/11 00:35:53;;;;;;;18.45;5.70;;;;;;;-142.57;55.34;115900.28;6279178;22;20012;-86
2023/07/11 00:38:19;;;;;;;12.95;5.88;;;;;;;-142.57;55.26;115900.28;6282880;22;20034;-83
2023/07/11 00:40:49;;;;;;;14.88;5.13;;;;;;;-142.57;55.30;115900.28;6285156;22;20084;-85
2023/07/11 00:43:19;;;;;;;10.10;5.20;;;;;;;-142.57;54.88;115900.28;6282510;22;20074;-86
2023/07/11 00:46:14;;;;;;;12.02;4.63;;;;;;;-142.57;54.68;115900.28;6286687;22;20012;-84
2023/07/11 00:48:53;;;;;;;14.07;4.63;;;;;;;-142.57;55.60;115900.28;6161899;23;20056;-85
2023/07/11 00:51:30;;;;;;;17.15;7.32;;;;;;;-142.57;58.87;115900.28;6156675;23;20017;-83
2023/07/11 00:53:56;;;;;;;28.30;8.40;;;;;;;-142.57;62.40;115900.28;6129655;23;20026;-84
2023/07/11 00:56:29;;;;;;;23.20;9.10;;;;;;;-142.57;63.83;115900.28;6153374;23;20059;-85
2023/07/11 00:58:57;;;;;;;17.53;9.83;;;;;;;-142.57;65.29;115900.28;6199100;22;20323;-84
2023/07/11 01:01:23;;;;;;;18.73;9.00;;;;;;;-142.57;66.07;115900.28;6277140;22;20007;-86
2023/07/11 01:03:52;;;;;;;17.35;8.73;;;;;;;-142.57;66.83;115900.28;6277572;22;20016;-86
2023/07/11 01:06:21;;;;;;;16.35;9.90;;;;;;;-142.57;67.27;115900.28;6281722;22;20054;-87
2023/07/11 01:08:49;;;;;;;17.67;9.07;;;;;;;-142.57;68.03;115900.28;6286227;22;20007;-85
2023/07/11 01:11:16;;;;;;;21.67;9.98;;;;;;;-142.57;68.72;115900.28;6286798;22;20015;-85
2023/07/11 01:13:42;;;;;;;23.67;9.95;;;;;;;-142.57;69.86;115900.28;6291004;22;20021;-87
2023/07/11 01:16:08;;;;;;;22.33;9.30;;;;;;;-142.57;69.71;115900.28;6295015;22;20035;-85
2023/07/11 01:18:34;;;;;;;15.43;9.75;;;;;;;-142.57;69.62;115900.28;6303270;22;20000;-86
2023/07/11 01:21:04;;;;;;;25.75;10.00;;;;;;;-142.57;68.95;115900.28;6301558;22;19991;-86
2023/07/11 01:23:31;;;;;;;24.17;9.32;;;;;;;-142.57;68.64;115900.28;6300392;22;20019;-84
2023/07/11 01:26:06;;;;;;;14.70;8.27;;;;;;;-142.57;68.39;115900.28;6305395;22;20015;-86
2023/07/11 01:28:31;;;;;;;14.60;8.50;;;;;;;-142.57;67.26;115900.28;6304169;22;20042;-87
2023/07/11 01:30:57;;;;;;;21.15;8.35;;;;;;;-142.57;66.94;115900.28;6305093;22;20015;-85
2023/07/11 01:33:24;;;;;;;21.77;8.50;;;;;;;-142.57;66.10;115900.28;6305175;22;20030;-84
2023/07/11 01:35:52;;;;;;;16.85;8.00;;;;;;;-142.57;66.88;115900.28;6305300;22;20025;-85
2023/07/11 01:38:19;;;;;;;18.52;8.52;;;;;;;-142.57;67.46;115900.28;6304935;22;20023;-85
2023/07/11 01:40:46;;;;;;;23.80;8.73;;;;;;;-142.57;67.66;115900.28;6305001;22;20012;-86
2023/07/11 01:43:12;;;;;;;15.82;8.15;;;;;;;-142.57;67.81;115900.28;6304003;22;20022;-89
2023/07/11 01:45:37;;;;;;;20.00;9.38;;;;;;;-142.57;68.69;115900.28;6302129;22;20008;-89
2023/07/11 01:48:03;;;;;;;21.00;9.23;;;;;;;-142.57;68.51;115900.28;6302812;22;20098;-84
2023/07/11 01:50:28;;;;;;;19.58;9.32;;;;;;;-142.57;68.04;115900.28;6304363;22;20048;-86
2023/07/11 01:52:54;;;;;;;24.02;8.95;;;;;;;-142.57;68.31;115900.28;6301163;22;20011;-85
2023/07/11 01:55:19;;;;;;;24.48;9.73;;;;;;;-142.57;69.01;115900.28;6287098;22;20066;-88
2023/07/11 01:57:48;;;;;;;21.25;9.32;;;;;;;-142.57;69.72;115900.28;6284170;22;20023;-88
2023/07/11 02:00:23;;;;;;;17.23;9.40;;;;;;;-142.57;68.99;115900.28;6284406;22;20015;-86
2023/07/11 02:02:57;;;;;;;28.75;8.68;;;;;;;-142.57;69.89;115900.28;6284873;22;20301;-88
2023/07/11 02:05:27;;;;;;;20.98;8.63;;;;;;;-142.57;70.00;115900.28;6261530;22;20068;-85
2023/07/11 02:07:52;;;;;;;17.27;8.88;;;;;;;-142.57;69.18;115900.28;6294421;22;20026;-85
2023/07/11 02:10:18;;;;;;;27.35;8.48;;;;;;;-142.57;69.60;115900.28;6301446;22;19988;-86
2023/07/11 02:12:44;;;;;;;16.80;8.10;;;;;;;-142.57;69.45;115900.28;6298363;22;20031;-83
2023/07/11 02:15:11;;;;;;;16.95;7.95;;;;;;;-142.57;67.55;115900.28;6298151;22;20015;-86
2023/07/11 02:17:37;;;;;;;23.17;7.28;;;;;;;-142.57;67.48;115900.28;6299577;22;20557;-84
2023/07/11 02:20:04;;;;;;;21.83;7.72;;;;;;;-142.57;66.96;115900.28;6300241;22;20004;-83
2023/07/11 02:22:29;;;;;;;15.65;6.97;;;;;;;-142.57;66.74;115900.28;6273543;22;20041;-85
2023/07/11 02:24:57;;;;;;;19.83;7.97;;;;;;;-142.57;65.76;115900.28;6299724;22;20015;-83
2023/07/11 02:27:23;;;;;;;18.17;7.30;;;;;;;-142.57;65.87;115900.28;6300483;22;20010;-82
2023/07/11 02:29:48;;;;;;;16.00;7.00;;;;;;;-142.57;64.91;115900.28;6299680;22;20398;-82
2023/07/11 02:32:14;;;;;;;15.18;6.32;;;;;;;-142.57;64.46;115900.28;6300733;22;20000;-83
2023/07/11 02:34:40;;;;;;;14.73;7.18;;;;;;;-142.57;65.38;115900.28;6294979;22;20011;-82
2023/07/11 02:37:05;;;;;;;16.30;6.35;;;;;;;-142.57;64.91;115900.28;6297399;22;20020;-82
2023/07/11 02:39:31;;;;;;;17.80;6.90;;;;;;;-142.57;64.71;115900.28;6301046;22;20011;-81
2023/07/11 02:41:57;;;;;;;21.38;6.68;;;;;;;-142.57;65.29;115900.28;6301190;22;20090;-83
2023/07/11 02:44:22;;;;;;;18.33;6.45;;;;;;;-142.57;63.04;115900.28;6298582;22;20010;-82
2023/07/11 02:46:51;;;;;;;17.52;6.43;;;;;;;-142.57;62.63;115900.28;6298058;22;20087;-83
2023/07/11 02:49:20;;;;;;;15.95;6.10;;;;;;;-142.57;62.39;115900.28;6294185;22;20008;-83
2023/07/11 02:51:45;;;;;;;23.00;6.20;;;;;;;-142.57;62.20;115900.28;6284630;22;20004;-83
2023/07/11 02:54:11;;;;;;;17.90;6.07;;;;;;;-142.57;62.16;115900.28;6280877;22;20022;-88
2023/07/11 02:56:37;;;;;;;17.83;6.38;;;;;;;-142.57;62.00;115900.28;6282963;22;20116;-82
2023/07/11 02:59:04;;;;;;;16.77;5.78;;;;;;;-142.57;61.29;115900.28;6283268;22;20007;-84
2023/07/11 03:01:33;;;;;;;18.85;5.60;;;;;;;-142.57;61.62;115900.28;6277454;22;20018;-81
2023/07/11 03:03:59;;;;;;;16.45;6.43;;;;;;;-142.57;61.83;115900.28;6279760;22;20031;-81
2023/07/11 03:06:25;;;;;;;19.20;6.35;;;;;;;-142.57;62.00;115900.28;6279589;22;20011;-83
2023/07/11 03:08:51;;;;;;;25.25;5.68;;;;;;;-142.57;61.69;115900.28;6279298;22;20050;-83
2023/07/11 03:11:16;;;;;;;14.85;5.88;;;;;;;-142.57;61.38;115900.28;6278975;22;20007;-83
2023/07/11 03:13:42;;;;;;;14.70;5.07;;;;;;;-142.57;61.11;115900.28;6279419;22;20015;-80
2023/07/11 03:16:08;;;;;;;15.00;5.05;;;;;;;-142.57;61.56;115900.28;6279337;22;20439;-84
2023/07/11 03:18:34;;;;;;;18.17;5.65;;;;;;;-142.57;61.86;115900.28;6278824;22;20057;-82
2023/07/11 03:21:02;;;;;;;12.38;6.10;;;;;;;-142.57;62.45;115900.28;6279587;22;20004;-82
2023/07/11 03:23:29;;;;;;;14.57;5.43;;;;;;;-142.57;62.70;115900.28;6279053;22;20015;-84
2023/07/11 03:25:54;;;;;;;19.33;5.25;;;;;;;-142.57;63.27;115900.28;6278750;22;20034;-82
2023/07/11 03:28:20;;;;;;;22.17;5.90;;;;;;;-142.57;63.43;115900.28;6279141;22;20059;-81
2023/07/11 03:30:47;;;;;;;13.60;5.07;;;;;;;-142.57;63.01;115900.28;6278543;22;20435;-79
2023/07/11 03:33:13;;;;;;;14.95;5.63;;;;;;;-142.57;62.41;115900.28;6277971;22;20000;-83
2023/07/11 03:35:39;;;;;;;15.75;5.75;;;;;;;-142.57;61.47;115900.28;6279472;22;20257;-83
2023/07/11 03:38:05;;;;;;;13.95;5.32;;;;;;;-142.57;61.85;115900.28;6278468;22;20018;-85
2023/07/11 03:40:30;;;;;;;19.77;5.22;;;;;;;-142.57;60.79;115900.28;6279030;22;20014;-79
2023/07/11 03:42:56;;;;;;;16.27;4.78;;;;;;;-142.57;61.10;115900.28;6279898;22;20358;-81
2023/07/11 03:45:22;;;;;;;15.55;5.32;;;;;;;-142.57;60.81;115900.28;6226547;22;20313;-82
2023/07/11 03:47:48;;;;;;;13.45;5.20;;;;;;;-142.57;60.90;115900.28;6278741;22;20010;-80
2023/07/11 03:50:14;;;;;;;10.85;5.30;;;;;;;-142.57;60.65;115900.28;6283544;22;20023;-81
2023/07/11 03:52:39;;;;;;;22.85;5.97;;;;;;;-142.57;61.24;115900.28;6287550;22;20008;-83
2023/07/11 03:55:06;;;;;;;15.68;5.03;;;;;;;-142.57;61.53;115900.28;6280138;22;20007;-82
2023/07/11 03:57:31;;;;;;;16.85;5.40;;;;;;;-142.57;61.32;115900.28;6279393;22;20102;-84
2023/07/11 03:59:57;;;;;;;20.80;5.65;;;;;;;-142.57;61.55;115900.28;6279548;22;20033;-84
2023/07/11 04:02:22;;;;;;;11.50;4.90;;;;;;;-142.57;61.66;115900.28;6278928;22;20004;-82
2023/07/11 04:04:48;;;;;;;12.15;4.68;;;;;;;-142.57;61.41;115900.28;6279573;22;20063;-85
2023/07/11 04:07:13;;;;;;;18.45;5.03;;;;;;;-142.57;60.72;115900.28;6278512;22;20003;-83
2023/07/11 04:09:40;;;;;;;23.98;5.13;;;;;;;-142.57;60.57;115900.28;6284683;22;20012;-83
2023/07/11 04:12:07;;;;;;;17.13;4.28;;;;;;;-142.57;60.12;115900.28;6285629;22;20008;-81
2023/07/11 04:14:32;;;;;;;20.42;5.22;;;;;;;-142.57;60.40;115900.28;6300575;22;20023;-83
2023/07/11 04:16:58;;;;;;;16.60;5.38;;;;;;;-142.57;60.42;115900.28;6301658;22;19999;-84
2023/07/11 04:19:23;;;;;;;16.15;6.57;;;;;;;-142.57;60.55;115900.28;6294400;22;19999;-82
2023/07/11 04:21:49;;;;;;;20.52;5.35;;;;;;;-142.57;60.88;115900.28;6278206;22;20011;-87
2023/07/11 04:24:15;;;;;;;13.35;4.07;;;;;;;-142.57;60.59;115900.28;6276357;22;20011;-84
2023/07/11 04:26:40;;;;;;;15.40;4.75;;;;;;;-142.57;60.69;115900.28;6278843;22;20015;-87
2023/07/11 04:29:06;;;;;;;17.73;5.13;;;;;;;-142.57;60.92;115900.28;6278144;22;20322;-84
2023/07/11 04:31:32;;;;;;;15.68;4.60;;;;;;;-142.57;60.80;115900.28;6277860;22;20011;-84
2023/07/11 04:33:57;;;;;;;16.17;5.20;;;;;;;-142.57;60.97;115900.28;6276736;22;20030;-85
2023/07/11 04:36:23;;;;;;;15.45;5.30;;;;;;;-142.57;60.84;115900.28;6276037;22;20398;-87
2023/07/11 04:38:48;;;;;;;15.93;4.82;;;;;;;-142.57;60.88;115900.28;6276913;22;20090;-84
2023/07/11 04:41:14;;;;;;;14.43;4.95;;;;;;;-142.57;60.92;115900.28;6280263;22;20008;-85
2023/07/11 04:43:40;;;;;;;17.73;5.20;;;;;;;-142.57;61.16;115900.28;6281184;22;20014;-85
2023/07/11 04:46:06;;;;;;;18.48;5.57;;;;;;;-142.57;61.69;115900.28;6279992;22;20015;-82
2023/07/11 04:48:33;;;;;;;16.02;5.40;;;;;;;-142.57;60.80;115900.28;6279207;22;20115;-83
2023/07/11 04:51:00;;;;;;;16.75;5.53;;;;;;;-142.57;60.59;115900.28;6277836;22;20347;-86
2023/07/11 04:53:27;;;;;;;18.50;5.13;;;;;;;-142.57;59.71;115900.28;6279310;22;20007;-87
2023/07/11 04:56:01;;;;;;;19.05;4.93;;;;;;;-142.57;60.01;115900.28;6279353;22;20007;-84
2023/07/11 04:58:31;;;;;;;14.88;5.03;;;;;;;-142.57;60.05;115900.28;6277298;22;20008;-87
2023/07/11 05:01:04;;;;;;;22.55;6.15;;;;;;;-142.57;59.39;115900.28;6279854;22;20015;-83
2023/07/11 05:03:30;;;;;;;15.82;5.15;;;;;;;-142.57;58.99;115900.28;6277131;22;20098;-84
2023/07/11 05:05:56;;;;;;;20.48;5.90;;;;;;;-142.57;59.19;115900.28;6278985;22;20042;-83
2023/07/11 05:08:22;;;;;;;22.02;4.93;;;;;;;-142.57;59.42;115900.28;6279034;22;20000;-84
2023/07/11 05:10:52;;;;;;;14.13;5.65;;;;;;;-142.57;59.39;115900.28;6284680;22;20268;-83
2023/07/11 05:13:18;;;;;;;16.13;5.00;;;;;;;-142.57;58.80;115900.28;6280896;22;20318;-86
2023/07/11 05:15:44;;;;;;;13.88;5.65;;;;;;;-142.57;58.38;115900.28;6277971;22;20473;-86
2023/07/11 05:18:10;;;;;;;17.60;6.00;;;;;;;-142.57;57.95;115900.28;6281594;22;20008;-85
2023/07/11 05:20:35;;;;;;;19.67;5.88;;;;;;;-142.57;58.29;115900.28;6283338;22;20003;-85
2023/07/11 05:23:01;;;;;;;16.85;5.35;;;;;;;-142.57;58.56;115900.28;6284535;22;20298;-86
2023/07/11 05:25:26;;;;;;;13.07;5.55;;;;;;;-142.57;58.54;115900.28;6282337;22;20024;-86
2023/07/11 05:27:52;;;;;;;14.48;5.53;;;;;;;-142.57;58.38;115900.28;6283589;22;20015;-83
2023/07/11 05:30:17;;;;;;;14.40;5.45;;;;;;;-142.57;57.94;115900.28;6280471;22;20053;-85
2023/07/11 05:32:43;;;;;;;20.50;5.65;;;;;;;-142.57;57.30;115900.28;6280326;22;20011;-84
2023/07/11 05:35:09;;;;;;;14.10;5.30;;;;;;;-142.57;56.80;115900.28;6274824;22;20102;-85
2023/07/11 05:37:34;;;;;;;16.80;6.10;;;;;;;-142.57;56.80;115900.28;6278404;22;20019;-86
2023/07/11 05:40:00;;;;;;;23.27;5.57;;;;;;;-142.57;56.96;115900.28;6275933;22;20011;-86
2023/07/11 05:42:25;;;;;;;24.27;5.22;;;;;;;-142.57;55.32;115900.28;6278557;22;20007;-85
2023/07/11 05:44:54;;;;;;;22.90;6.05;;;;;;;-142.57;54.44;115900.28;6280763;22;20015;-83
2023/07/11 05:47:20;;;;;;;17.52;5.40;;;;;;;-142.57;53.96;115900.28;6287323;22;20012;-82
2023/07/11 05:49:46;;;;;;;12.38;5.13;;;;;;;-142.57;53.48;115900.28;6280834;22;20065;-84
2023/07/11 05:52:13;;;;;;;17.60;5.40;;;;;;;-142.57;53.01;115900.28;6278115;22;20007;-84
2023/07/11 05:54:39;;;;;;;23.27;5.93;;;;;;;-142.57;52.71;115900.28;6276955;22;20007;-84
2023/07/11 05:57:04;;;;;;;21.77;5.40;;;;;;;-142.57;52.16;115900.28;6279618;22;20071;-85
2023/07/11 05:59:30;;;;;;;24.23;5.70;;;;;;;-142.57;52.50;115900.28;6283136;22;20435;-86
2023/07/11 06:01:56;;;;;;;17.75;5.63;;;;;;;-142.57;52.63;115900.28;6278678;22;20366;-83
2023/07/11 06:04:21;;;;;;;21.85;6.28;;;;;;;-142.57;52.86;115900.28;6278234;22;20039;-84
2023/07/11 06:06:47;;;;;;;18.73;5.55;;;;;;;-142.57;52.32;115900.28;6279361;22;20014;-83
2023/07/11 06:09:18;;;;;;;13.10;5.88;;;;;;;-142.57;52.27;115900.28;6278534;22;20326;-84
2023/07/11 06:11:45;;;;;;;24.03;6.03;;;;;;;-142.57;51.30;115900.28;6279033;22;20435;-84
2023/07/11 06:14:11;;;;;;;27.00;6.90;;;;;;;-142.57;51.02;115900.28;6278809;22;20007;-84
2023/07/11 06:16:37;;;;;;;21.27;6.32;;;;;;;-142.57;50.78;115900.28;6278943;22;20066;-85
2023/07/11 06:19:04;;;;;;;24.98;6.10;;;;;;;-142.57;50.05;115900.28;6224747;22;20007;-87
2023/07/11 06:21:33;;;;;;;31.23;6.93;;;;;;;-142.57;49.48;115900.28;6272597;22;20090;-83
2023/07/11 06:23:58;;;;;;;18.25;5.18;;;;;;;-142.57;47.73;115900.28;6273678;22;20026;-87
2023/07/11 06:26:25;;;;;;;18.27;6.03;;;;;;;-142.57;46.88;115900.28;6275290;22;20010;-84
2023/07/11 06:28:51;;;;;;;21.58;6.20;;;;;;;-142.57;47.67;115900.28;6273813;22;20007;-86
2023/07/11 06:31:16;;;;;;;27.63;5.70;;;;;;;-142.57;47.11;115900.28;6246985;22;20018;-84
2023/07/11 06:33:42;;;;;;;19.75;5.38;;;;;;;-142.57;46.39;115900.28;6272337;22;20011;-86
2023/07/11 06:36:09;;;;;;;23.50;6.18;;;;;;;-142.57;45.22;115900.28;6270881;22;20723;-85
2023/07/11 06:38:37;;;;;;;17.80;6.35;;;;;;;-142.57;45.99;115900.28;6271756;22;20556;-84
2023/07/11 06:41:03;;;;;;;13.15;5.80;;;;;;;-142.57;44.63;115900.28;6269527;22;20383;-87
2023/07/11 06:43:29;;;;;;;24.60;5.90;;;;;;;-142.57;43.64;115900.28;6271954;22;20109;-85
2023/07/11 06:45:57;;;;;;;16.75;5.43;;;;;;;-142.57;43.46;115900.28;6283566;22;20008;-87
2023/07/11 06:48:30;;;;;;;18.65;5.32;;;;;;;-142.57;43.63;115900.28;6278127;22;20101;-87
2023/07/11 06:50:58;;;;;;;21.77;6.15;;;;;;;-142.57;43.59;115900.28;6291053;22;20392;-85
2023/07/11 06:53:27;;;;;;;16.05;5.05;;;;;;;-142.57;42.99;115900.28;6277023;22;20438;-86
2023/07/11 06:55:53;;;;;;;13.52;5.95;;;;;;;-142.57;42.63;115900.28;6277206;22;20019;-83
2023/07/11 06:58:20;;;;;;;16.92;5.57;;;;;;;-142.57;42.80;115900.28;6271279;22;20008;-84
2023/07/11 07:00:54;;;;;;;19.67;4.95;;;;;;;-142.57;42.28;115900.28;6271729;22;20316;-84
2023/07/11 07:03:20;;;;;;;16.73;4.90;;;;;;;-142.57;41.35;115900.28;6271378;22;20155;-82
2023/07/11 07:05:55;;;;;;;19.75;4.82;;;;;;;-142.57;38.75;115900.28;6271251;22;20087;-84
2023/07/11 07:08:22;;;;;;;17.30;4.70;;;;;;;-142.57;38.64;115900.28;6269267;22;20018;-84
2023/07/11 07:10:49;;;;;;;15.13;4.95;;;;;;;-142.57;37.73;115900.28;6270498;22;20053;-83
2023/07/11 07:13:16;;;;;;;14.48;4.70;;;;;;;-142.57;38.21;115900.28;6268614;22;20016;-83
2023/07/11 07:15:42;;;;;;;22.35;4.80;;;;;;;-142.57;37.93;115900.28;6270440;22;20035;-82
2023/07/11 07:18:07;;;;;;;15.98;4.60;;;;;;;-142.57;37.50;115900.28;6267678;22;20015;-84
2023/07/11 07:20:33;;;;;;;22.98;4.53;;;;;;;-142.57;37.13;115900.28;6268017;22;20087;-86
2023/07/11 07:22:58;;;;;;;13.95;4.93;;;;;;;-142.57;35.98;115900.28;6270056;22;20015;-82
2023/07/11 07:25:24;;;;;;;15.20;4.28;;;;;;;-142.57;33.71;115900.28;6271477;22;20015;-87
2023/07/11 07:27:49;;;;;;;15.55;5.03;;;;;;;-142.57;34.92;115900.28;6272558;22;20011;-81
2023/07/11 07:30:15;;;;;;;15.77;4.68;;;;;;;-142.57;33.77;115900.28;6272542;22;20084;-87
2023/07/11 07:32:40;;;;;;;16.95;4.40;;;;;;;-142.57;33.95;115900.28;6274964;22;20004;-88
2023/07/11 07:35:08;;;;;;;17.15;4.03;;;;;;;-142.57;34.46;115900.28;6271867;22;20067;-88
2023/07/11 07:37:35;;;;;;;16.05;4.50;;;;;;;-142.57;34.25;115900.28;6280053;22;20508;-86
2023/07/11 07:40:10;;;;;;;13.65;4.15;;;;;;;-142.57;33.40;115900.28;6290609;22;20038;-88
2023/07/11 07:42:35;;;;;;;14.30;4.13;;;;;;;-142.57;31.82;115900.28;6282657;22;20399;-87
2023/07/11 07:45:07;;;;;;;25.70;5.25;;;;;;;-142.57;31.70;115900.28;6287137;22;20015;-87
2023/07/11 07:47:35;;;;;;;19.98;3.97;;;;;;;-142.57;31.78;115900.28;6279500;22;20011;-87
2023/07/11 07:50:04;;;;;;;18.08;4.63;;;;;;;-142.57;31.99;115900.28;6277082;22;20641;-87
2023/07/11 07:52:32;;;;;;;20.02;5.40;;;;;;;-142.57;32.51;115900.28;6274377;22;20022;-90
2023/07/11 07:54:58;;;;;;;14.93;4.75;;;;;;;-142.57;33.67;115900.28;6271384;22;20019;-87
2023/07/11 07:57:24;;;;;;;15.70;4.03;;;;;;;-142.57;33.91;115900.28;6271545;22;20014;-85
2023/07/11 07:59:49;;;;;;;15.45;4.90;;;;;;;-142.57;33.36;115900.28;6270541;22;20012;-88
2023/07/11 08:02:21;;;;;;;17.02;4.97;;;;;;;-142.57;32.59;115900.28;6276312;22;20019;-83
2023/07/11 08:04:49;;;;;;;13.88;5.28;;;;;;;-142.57;33.27;115900.28;6287851;22;20021;-85
2023/07/11 08:07:16;;;;;;;17.92;5.78;;;;;;;-142.57;32.88;115900.28;6280050;22;20008;-85
2023/07/11 08:09:42;;;;;;;16.02;4.88;;;;;;;-142.57;33.28;115900.28;6280260;22;20000;-86
2023/07/11 08:12:09;;;;;;;20.20;5.47;;;;;;;-142.57;33.91;115900.28;6277127;22;20011;-84
2023/07/11 08:14:37;;;;;;;13.43;4.68;;;;;;;-142.57;34.30;115900.28;6276141;22;20015;-90
2023/07/11 08:17:04;;;;;;;25.70;5.57;;;;;;;-142.57;34.30;115900.28;6277356;22;20018;-88
2023/07/11 08:19:30;;;;;;;13.60;5.28;;;;;;;-142.57;34.25;115900.28;6275405;22;20489;-87
2023/07/11 08:21:55;;;;;;;19.92;5.88;;;;;;;-142.57;33.69;115900.28;6274451;22;20012;-88
2023/07/11 08:24:21;;;;;;;17.98;6.32;;;;;;;-142.57;34.25;115900.28;6275759;22;20012;-88
2023/07/11 08:26:46;;;;;;;22.40;5.72;;;;;;;-142.57;34.73;115900.28;6280264;22;20012;-81
2023/07/11 08:29:13;;;;;;;15.30;5.90;;;;;;;-142.57;32.32;115900.28;6277463;22;20022;-85
2023/07/11 08:31:41;;;;;;;17.48;5.18;;;;;;;-142.57;31.32;115900.28;6275423;22;20008;-84
2023/07/11 08:34:07;;;;;;;16.38;6.45;;;;;;;-142.57;32.25;115900.28;6281499;22;20011;-87
2023/07/11 08:36:36;;;;;;;18.00;5.63;;;;;;;-142.57;32.71;115900.28;6288890;22;20030;-88
2023/07/11 08:39:05;;;;;;;17.48;5.70;;;;;;;-142.57;32.90;115900.28;6288864;22;20023;-84
2023/07/11 08:41:51;;;;;;;22.80;5.88;;;;;;;-142.57;33.22;115900.28;6279289;22;20018;-81
2023/07/11 08:44:35;;;;;;;17.33;6.50;;;;;;;-142.57;34.45;115900.28;6272203;22;20011;-85
2023/07/11 08:47:32;;;;;;;16.02;6.38;;;;;;;-142.57;33.81;115900.28;6272032;22;20473;-86
2023/07/11 08:50:03;;;;;;;24.65;6.05;;;;;;;-142.57;33.30;115900.28;6249335;22;20015;-86
2023/07/11 08:52:32;;;;;;;22.40;6.77;;;;;;;-142.57;34.08;115900.28;6280012;22;20067;-86
2023/07/11 08:55:03;;;;;;;16.25;6.60;;;;;;;-142.57;33.48;115900.28;6277046;22;20019;-86
2023/07/11 08:57:31;;;;;;;20.88;7.13;;;;;;;-142.57;33.30;115900.28;6248892;22;20031;-85
2023/07/11 09:00:15;;;;;;;18.88;6.35;;;;;;;-142.57;33.16;115900.28;6275793;22;20004;-83
2023/07/11 09:02:44;;;;;;;19.75;6.40;;;;;;;-142.57;33.54;115900.28;6276860;22;20037;-86
2023/07/11 09:05:24;;;;;;;22.60;7.07;;;;;;;-142.57;33.14;115900.28;6278006;22;19999;-86
2023/07/11 09:07:52;;;;;;;16.40;6.90;;;;;;;-142.57;32.50;115900.28;6277381;22;20011;-86
2023/07/11 09:10:32;;;;;;;24.73;6.72;;;;;;;-142.57;32.11;115900.28;6276450;22;20065;-85
2023/07/11 09:13:07;;;;;;;22.05;6.70;;;;;;;-142.57;32.41;115900.28;6275056;22;20046;-88
2023/07/11 09:15:45;;;;;;;15.00;6.10;;;;;;;-142.57;31.72;115900.28;6276216;22;20022;-88
2023/07/11 09:18:18;;;;;;;13.23;6.30;;;;;;;-142.57;31.79;115900.28;6274723;22;20019;-84
2023/07/11 09:20:50;;;;;;;21.35;7.03;;;;;;;-142.57;32.09;115900.28;6276962;22;20043;-88
2023/07/11 09:24:04;;;;;;;16.25;6.50;;;;;;;-142.57;31.48;115900.28;6251606;22;20426;-87
2023/07/11 09:26:32;;;;;;;20.33;6.80;;;;;;;-142.57;32.89;115900.28;6128861;23;20014;-88
2023/07/11 09:29:05;;;;;;;19.98;6.55;;;;;;;-142.57;32.37;115900.28;6153120;23;20069;-86
2023/07/11 09:31:39;;;;;;;12.77;6.90;;;;;;;-142.57;32.79;115900.28;6153852;23;20041;-88
2023/07/11 09:34:24;;;;;;;15.73;6.50;;;;;;;-142.57;32.68;115900.28;6154731;23;20021;-89
2023/07/11 09:36:51;;;;;;;17.83;6.63;;;;;;;-142.57;32.84;115900.28;6185895;22;20541;-86
2023/07/11 09:39:42;;;;;;;26.17;7.25;;;;;;;-142.57;32.01;115900.28;6278232;22;20125;-88
2023/07/11 09:42:17;;;;;;;15.90;6.57;;;;;;;-142.57;32.27;115900.28;6280581;22;20018;-90
2023/07/11 09:44:56;;;;;;;21.15;6.90;;;;;;;-142.57;31.93;115900.28;6280695;22;20016;-89
2023/07/11 09:47:21;;;;;;;22.75;6.93;;;;;;;-142.57;31.83;115900.28;6289266;22;20367;-89
2023/07/11 09:49:51;;;;;;;18.20;6.60;;;;;;;-142.57;31.36;115900.28;6274996;22;20010;-89
2023/07/11 09:52:26;;;;;;;21.63;7.18;;;;;;;-142.57;32.25;115900.28;6278114;22;20047;-88
2023/07/11 09:54:53;;;;;;;21.38;6.63;;;;;;;-142.57;32.11;115900.28;6304074;22;20003;-89
2023/07/11 09:57:19;;;;;;;18.08;6.32;;;;;;;-142.57;32.28;115900.28;6303904;22;20011;-87
2023/07/11 09:59:54;;;;;;;14.35;6.45;;;;;;;-142.57;32.37;115900.28;6303510;22;19996;-89
2023/07/11 10:02:21;;;;;;;19.27;6.25;;;;;;;-142.57;32.15;115900.28;6301113;22;19996;-89
2023/07/11 10:04:46;;;;;;;22.23;6.65;;;;;;;-142.57;32.24;115900.28;6278173;22;20022;-88
2023/07/11 10:07:19;;;;;;;12.30;6.82;;;;;;;-142.57;32.53;115900.28;6304021;22;19999;-88
2023/07/11 10:10:02;;;;;;;17.45;7.10;;;;;;;-142.57;32.45;115900.28;6304508;22;19996;-88
2023/07/11 10:12:28;;;;;;;21.73;6.97;;;;;;;-142.57;32.98;115900.28;6303781;22;20014;-87
2023/07/11 10:14:58;;;;;;;24.50;7.68;;;;;;;-142.57;32.56;115900.28;6277356;22;20007;-86
2023/07/11 10:17:33;;;;;;;17.45;8.65;;;;;;;-142.57;32.95;115900.28;6301998;22;20018;-87
2023/07/11 10:20:11;;;;;;;23.17;8.68;;;;;;;-142.57;33.01;115900.28;6301955;22;20011;-90
2023/07/11 10:22:37;;;;;;;21.58;8.43;;;;;;;-142.57;32.92;115900.28;6295948;22;20007;-88
2023/07/11 10:25:21;;;;;;;16.73;7.50;;;;;;;-142.57;32.93;115900.28;6293553;22;20114;-87
2023/07/11 10:27:59;;;;;;;14.93;7.40;;;;;;;-142.57;32.82;115900.28;6292808;22;20008;-88
2023/07/11 10:30:28;;;;;;;21.20;7.38;;;;;;;-142.57;33.03;115900.28;6290096;22;20012;-88
2023/07/11 10:33:13;;;;;;;12.40;7.28;;;;;;;-142.57;32.87;115900.28;6283377;22;20065;-88
2023/07/11 10:35:40;;;;;;;20.25;7.93;;;;;;;-142.57;33.01;115900.28;6287413;22;20022;-88
2023/07/11 10:38:29;;;;;;;20.15;8.20;;;;;;;-142.57;34.04;115900.28;6289378;22;20011;-90
2023/07/11 10:41:00;;;;;;;19.23;7.45;;;;;;;-142.57;34.58;115900.28;6289493;22;20031;-88
2023/07/11 10:43:37;;;;;;;26.00;7.35;;;;;;;-142.57;34.20;115900.28;6287504;22;20087;-91
2023/07/11 10:46:30;;;;;;;15.70;6.78;;;;;;;-142.57;33.85;115900.28;6281690;22;20003;-87
2023/07/11 10:49:00;;;;;;;24.65;8.02;;;;;;;-142.57;33.17;115900.28;6280062;22;20011;-90
2023/07/11 10:51:37;;;;;;;14.50;7.17;;;;;;;-142.57;33.40;115900.28;6279693;22;20008;-90
2023/07/11 10:54:05;;;;;;;16.25;6.78;;;;;;;-142.57;33.31;115900.28;6278648;22;20037;-87
2023/07/11 10:56:36;;;;;;;17.88;6.65;;;;;;;-142.57;33.27;115900.28;6284406;22;20031;-85
2023/07/11 10:59:02;;;;;;;;;;;;;;;-142.57;32.12;115900.28;6281278;22;20110;-90
2023/07/11 11:01:53;;;;;;;19.35;6.88;;;;;;;-142.57;32.40;115900.28;6278348;22;20371;-90
2023/07/11 11:04:46;;;;;;;19.20;8.15;;;;;;;-142.57;33.35;115900.28;6274777;22;20011;-87
2023/07/11 11:07:35;;;;;;;27.77;8.45;;;;;;;-142.57;33.65;115900.28;6279459;22;20012;-89
2023/07/11 11:10:08;;;;;;;15.88;7.03;;;;;;;-142.57;33.51;115900.28;6276777;22;20440;-88